sensor_id;sensor_type;location;lat;lon;timestamp;temperature;humidity
3380;DHT22;1703;51.964;7.642;2023-04-29T00:01:43;13.10;99.90
3380;DHT22;1703;51.964;7.642;2023-04-29T00:04:14;13.10;99.90
3380;DHT22;1703;51.964;7.642;2023-04-29T00:06:55;13.00;99.90
3380;DHT22;1703;51.964;7.642;2023-04-29T00:09:24;13.10;99.90
3380;DHT22;1703;51.964;7.642;2023-04-29T00:11:52;13.00;99.90
3380;DHT22;1703;51.964;7.642;2023-04-29T00:14:20;13.00;99.90
3380;DHT22;1703;51.964;7.642;2023-04-29T00:16:49;12.80;99.90
3380;DHT22;1703;51.964;7.642;2023-04-29T00:19:18;12.80;99.90
3380;DHT22;1703;51.964;7.642;2023-04-29T00:21:48;12.80;99.90
3380;DHT22;1703;51.964;7.642;2023-04-29T00:24:16;12.80;99.90
3380;DHT22;1703;51.964;7.642;2023-04-29T00:26:49;12.80;99.90
3380;DHT22;1703;51.964;7.642;2023-04-29T00:29:17;12.70;99.90
3380;DHT22;1703;51.964;7.642;2023-04-29T00:31:45;12.70;99.90
3380;DHT22;1703;51.964;7.642;2023-04-29T00:34:17;12.70;99.90
3380;DHT22;1703;51.964;7.642;2023-04-29T00:36:47;12.70;99.90
3380;DHT22;1703;51.964;7.642;2023-04-29T00:39:18;12.70;99.90
3380;DHT22;1703;51.964;7.642;2023-04-29T00:41:49;12.80;99.90
3380;DHT22;1703;51.964;7.642;2023-04-29T00:44:17;12.80;99.90
3380;DHT22;1703;51.964;7.642;2023-04-29T00:46:44;12.80;99.90
3380;DHT22;1703;51.964;7.642;2023-04-29T00:49:15;12.70;99.90
3380;DHT22;1703;51.964;7.642;2023-04-29T00:51:43;12.70;99.90
3380;DHT22;1703;51.964;7.642;2023-04-29T00:54:11;12.60;99.90
3380;DHT22;1703;51.964;7.642;2023-04-29T00:56:39;12.50;99.90
3380;DHT22;1703;51.964;7.642;2023-04-29T00:59:10;12.40;99.90
3380;DHT22;1703;51.964;7.642;2023-04-29T01:01:42;12.30;99.90
3380;DHT22;1703;51.964;7.642;2023-04-29T01:04:13;12.40;99.90
3380;DHT22;1703;51.964;7.642;2023-04-29T01:06:55;12.40;99.90
3380;DHT22;1703;51.964;7.642;2023-04-29T01:09:42;12.40;99.90
3380;DHT22;1703;51.964;7.642;2023-04-29T01:12:20;12.30;99.90
3380;DHT22;1703;51.964;7.642;2023-04-29T01:14:53;12.20;99.90
3380;DHT22;1703;51.964;7.642;2023-04-29T01:17:24;12.20;99.90
3380;DHT22;1703;51.964;7.642;2023-04-29T01:19:56;12.30;99.90
3380;DHT22;1703;51.964;7.642;2023-04-29T01:22:24;12.30;99.90
3380;DHT22;1703;51.964;7.642;2023-04-29T01:24:54;12.30;99.90
3380;DHT22;1703;51.964;7.642;2023-04-29T01:27:29;12.30;99.90
3380;DHT22;1703;51.964;7.642;2023-04-29T01:30:16;12.20;99.90
3380;DHT22;1703;51.964;7.642;2023-04-29T01:32:52;12.20;99.90
3380;DHT22;1703;51.964;7.642;2023-04-29T01:35:39;12.20;99.90
3380;DHT22;1703;51.964;7.642;2023-04-29T01:38:16;12.20;99.90
3380;DHT22;1703;51.964;7.642;2023-04-29T01:41:06;12.20;99.90
3380;DHT22;1703;51.964;7.642;2023-04-29T01:43:38;12.20;99.90
3380;DHT22;1703;51.964;7.642;2023-04-29T01:46:18;12.20;99.90
3380;DHT22;1703;51.964;7.642;2023-04-29T01:48:46;12.20;99.90
3380;DHT22;1703;51.964;7.642;2023-04-29T01:51:15;12.10;99.90
3380;DHT22;1703;51.964;7.642;2023-04-29T01:53:42;12.00;99.90
3380;DHT22;1703;51.964;7.642;2023-04-29T01:56:20;12.10;99.90
3380;DHT22;1703;51.964;7.642;2023-04-29T01:59:07;12.10;99.90
3380;DHT22;1703;51.964;7.642;2023-04-29T02:01:53;12.20;99.90
3380;DHT22;1703;51.964;7.642;2023-04-29T02:04:24;12.10;99.90
3380;DHT22;1703;51.964;7.642;2023-04-29T02:06:58;12.20;99.90
3380;DHT22;1703;51.964;7.642;2023-04-29T02:09:26;12.20;99.90
3380;DHT22;1703;51.964;7.642;2023-04-29T02:12:06;12.10;99.90
3380;DHT22;1703;51.964;7.642;2023-04-29T02:15:22;12.10;99.90
3380;DHT22;1703;51.964;7.642;2023-04-29T02:18:29;12.10;99.90
3380;DHT22;1703;51.964;7.642;2023-04-29T02:21:32;12.10;99.90
3380;DHT22;1703;51.964;7.642;2023-04-29T02:28:06;12.00;99.90
3380;DHT22;1703;51.964;7.642;2023-04-29T02:31:04;12.00;99.90
3380;DHT22;1703;51.964;7.642;2023-04-29T02:34:01;12.00;99.90
3380;DHT22;1703;51.964;7.642;2023-04-29T02:37:05;11.90;99.90
3380;DHT22;1703;51.964;7.642;2023-04-29T02:42:58;11.80;99.90
3380;DHT22;1703;51.964;7.642;2023-04-29T02:46:02;11.80;99.90
3380;DHT22;1703;51.964;7.642;2023-04-29T02:49:05;11.80;99.90
3380;DHT22;1703;51.964;7.642;2023-04-29T02:52:17;11.70;99.90
3380;DHT22;1703;51.964;7.642;2023-04-29T03:02:37;11.90;99.90
3380;DHT22;1703;51.964;7.642;2023-04-29T03:05:48;11.80;99.90
3380;DHT22;1703;51.964;7.642;2023-04-29T03:10:16;11.80;99.90
3380;DHT22;1703;51.964;7.642;2023-04-29T03:12:39;11.80;99.90
3380;DHT22;1703;51.964;7.642;2023-04-29T03:15:50;11.80;99.90
3380;DHT22;1703;51.964;7.642;2023-04-29T03:19:14;11.80;99.90
3380;DHT22;1703;51.964;7.642;2023-04-29T03:21:58;11.80;99.90
3380;DHT22;1703;51.964;7.642;2023-04-29T03:28:16;11.80;99.90
3380;DHT22;1703;51.964;7.642;2023-04-29T03:34:56;11.80;99.90
3380;DHT22;1703;51.964;7.642;2023-04-29T03:47:31;11.90;99.90
3380;DHT22;1703;51.964;7.642;2023-04-29T03:54:37;11.80;99.90
3380;DHT22;1703;51.964;7.642;2023-04-29T03:57:30;11.80;99.90
3380;DHT22;1703;51.964;7.642;2023-04-29T04:00:24;11.80;99.90
3380;DHT22;1703;51.964;7.642;2023-04-29T04:03:16;11.90;99.90
3380;DHT22;1703;51.964;7.642;2023-04-29T04:06:05;11.80;99.90
3380;DHT22;1703;51.964;7.642;2023-04-29T04:08:50;11.80;99.90
3380;DHT22;1703;51.964;7.642;2023-04-29T04:11:50;11.80;99.90
3380;DHT22;1703;51.964;7.642;2023-04-29T04:14:40;11.80;99.90
3380;DHT22;1703;51.964;7.642;2023-04-29T04:17:34;11.90;99.90
3380;DHT22;1703;51.964;7.642;2023-04-29T04:20:11;11.90;99.90
3380;DHT22;1703;51.964;7.642;2023-04-29T04:22:40;11.90;99.90
3380;DHT22;1703;51.964;7.642;2023-04-29T04:25:21;11.90;99.90
3380;DHT22;1703;51.964;7.642;2023-04-29T04:27:50;11.80;99.90
3380;DHT22;1703;51.964;7.642;2023-04-29T04:30:45;11.90;99.90
3380;DHT22;1703;51.964;7.642;2023-04-29T04:33:12;11.90;99.90
3380;DHT22;1703;51.964;7.642;2023-04-29T04:35:42;11.90;99.90
3380;DHT22;1703;51.964;7.642;2023-04-29T04:38:09;11.90;99.90
3380;DHT22;1703;51.964;7.642;2023-04-29T04:40:40;12.00;99.90
3380;DHT22;1703;51.964;7.642;2023-04-29T04:43:21;11.90;99.90
3380;DHT22;1703;51.964;7.642;2023-04-29T04:45:49;12.00;99.90
3380;DHT22;1703;51.964;7.642;2023-04-29T04:48:27;11.90;99.90
3380;DHT22;1703;51.964;7.642;2023-04-29T04:51:31;11.90;99.90
3380;DHT22;1703;51.964;7.642;2023-04-29T04:54:51;11.90;99.90
3380;DHT22;1703;51.964;7.642;2023-04-29T05:05:13;11.90;99.90
3380;DHT22;1703;51.964;7.642;2023-04-29T05:08:05;11.80;99.90
3380;DHT22;1703;51.964;7.642;2023-04-29T05:11:01;11.80;99.90
3380;DHT22;1703;51.964;7.642;2023-04-29T05:13:41;11.80;99.90
3380;DHT22;1703;51.964;7.642;2023-04-29T05:16:20;11.80;99.90
3380;DHT22;1703;51.964;7.642;2023-04-29T05:18:47;11.70;99.90
3380;DHT22;1703;51.964;7.642;2023-04-29T05:21:24;11.60;99.90
3380;DHT22;1703;51.964;7.642;2023-04-29T05:24:02;11.60;99.90
3380;DHT22;1703;51.964;7.642;2023-04-29T05:26:39;11.60;99.90
3380;DHT22;1703;51.964;7.642;2023-04-29T05:29:13;11.60;99.90
3380;DHT22;1703;51.964;7.642;2023-04-29T05:31:50;11.70;99.90
3380;DHT22;1703;51.964;7.642;2023-04-29T05:34:19;11.60;99.90
3380;DHT22;1703;51.964;7.642;2023-04-29T05:36:48;11.60;99.90
3380;DHT22;1703;51.964;7.642;2023-04-29T05:39:14;11.60;99.90
3380;DHT22;1703;51.964;7.642;2023-04-29T05:41:42;11.70;99.90
3380;DHT22;1703;51.964;7.642;2023-04-29T05:44:32;11.60;99.90
3380;DHT22;1703;51.964;7.642;2023-04-29T05:46:59;11.60;99.90
3380;DHT22;1703;51.964;7.642;2023-04-29T05:49:26;11.60;99.90
3380;DHT22;1703;51.964;7.642;2023-04-29T05:51:54;11.60;99.90
3380;DHT22;1703;51.964;7.642;2023-04-29T05:54:21;11.60;99.90
3380;DHT22;1703;51.964;7.642;2023-04-29T05:56:48;11.60;99.90
3380;DHT22;1703;51.964;7.642;2023-04-29T05:59:15;11.60;99.90
3380;DHT22;1703;51.964;7.642;2023-04-29T06:01:47;11.70;99.90
3380;DHT22;1703;51.964;7.642;2023-04-29T06:04:14;11.60;99.90
3380;DHT22;1703;51.964;7.642;2023-04-29T06:07:13;11.60;99.90
3380;DHT22;1703;51.964;7.642;2023-04-29T06:10:03;11.60;99.90
3380;DHT22;1703;51.964;7.642;2023-04-29T06:12:31;11.60;99.90
3380;DHT22;1703;51.964;7.642;2023-04-29T06:14:58;11.60;99.90
3380;DHT22;1703;51.964;7.642;2023-04-29T06:17:25;11.60;99.90
3380;DHT22;1703;51.964;7.642;2023-04-29T06:19:54;11.70;99.90
3380;DHT22;1703;51.964;7.642;2023-04-29T06:22:24;11.60;99.90
3380;DHT22;1703;51.964;7.642;2023-04-29T06:24:53;11.60;99.90
3380;DHT22;1703;51.964;7.642;2023-04-29T06:27:44;11.60;99.90
3380;DHT22;1703;51.964;7.642;2023-04-29T06:30:12;11.70;99.90
3380;DHT22;1703;51.964;7.642;2023-04-29T06:32:38;11.70;99.90
3380;DHT22;1703;51.964;7.642;2023-04-29T06:35:06;11.70;99.90
3380;DHT22;1703;51.964;7.642;2023-04-29T06:38:01;11.70;99.90
3380;DHT22;1703;51.964;7.642;2023-04-29T06:40:39;11.70;99.90
3380;DHT22;1703;51.964;7.642;2023-04-29T06:43:25;11.70;99.90
3380;DHT22;1703;51.964;7.642;2023-04-29T06:46:10;11.80;99.90
3380;DHT22;1703;51.964;7.642;2023-04-29T06:48:43;12.00;99.90
3380;DHT22;1703;51.964;7.642;2023-04-29T06:51:10;11.90;99.90
3380;DHT22;1703;51.964;7.642;2023-04-29T06:53:39;11.90;99.90
3380;DHT22;1703;51.964;7.642;2023-04-29T06:56:06;11.80;99.90
3380;DHT22;1703;51.964;7.642;2023-04-29T06:58:33;11.80;99.90
3380;DHT22;1703;51.964;7.642;2023-04-29T07:01:00;11.90;99.90
3380;DHT22;1703;51.964;7.642;2023-04-29T07:03:28;11.90;99.90
3380;DHT22;1703;51.964;7.642;2023-04-29T07:05:56;11.90;99.90
3380;DHT22;1703;51.964;7.642;2023-04-29T07:08:22;11.90;99.90
3380;DHT22;1703;51.964;7.642;2023-04-29T07:10:56;12.00;99.90
3380;DHT22;1703;51.964;7.642;2023-04-29T07:13:24;12.00;99.90
3380;DHT22;1703;51.964;7.642;2023-04-29T07:15:51;12.00;99.90
3380;DHT22;1703;51.964;7.642;2023-04-29T07:18:18;12.10;99.90
3380;DHT22;1703;51.964;7.642;2023-04-29T07:20:45;11.90;99.90
3380;DHT22;1703;51.964;7.642;2023-04-29T07:23:13;12.00;99.90
3380;DHT22;1703;51.964;7.642;2023-04-29T07:25:40;12.00;99.90
3380;DHT22;1703;51.964;7.642;2023-04-29T07:28:08;12.10;99.90
3380;DHT22;1703;51.964;7.642;2023-04-29T07:30:35;12.10;99.90
3380;DHT22;1703;51.964;7.642;2023-04-29T07:33:03;12.20;99.90
3380;DHT22;1703;51.964;7.642;2023-04-29T07:35:30;12.20;99.90
3380;DHT22;1703;51.964;7.642;2023-04-29T07:37:56;12.30;99.90
3380;DHT22;1703;51.964;7.642;2023-04-29T07:40:24;12.30;99.90
3380;DHT22;1703;51.964;7.642;2023-04-29T07:42:55;12.30;99.90
3380;DHT22;1703;51.964;7.642;2023-04-29T07:45:23;12.30;99.90
3380;DHT22;1703;51.964;7.642;2023-04-29T07:47:50;12.40;99.90
3380;DHT22;1703;51.964;7.642;2023-04-29T07:50:17;12.50;99.90
3380;DHT22;1703;51.964;7.642;2023-04-29T07:52:44;12.50;99.90
3380;DHT22;1703;51.964;7.642;2023-04-29T07:55:11;12.50;99.90
3380;DHT22;1703;51.964;7.642;2023-04-29T07:57:38;12.50;99.90
3380;DHT22;1703;51.964;7.642;2023-04-29T08:00:06;12.60;99.90
3380;DHT22;1703;51.964;7.642;2023-04-29T08:02:41;12.70;99.90
3380;DHT22;1703;51.964;7.642;2023-04-29T08:05:12;12.70;99.90
3380;DHT22;1703;51.964;7.642;2023-04-29T08:07:38;12.80;99.90
3380;DHT22;1703;51.964;7.642;2023-04-29T08:10:06;13.00;99.90
3380;DHT22;1703;51.964;7.642;2023-04-29T08:12:36;13.00;99.90
3380;DHT22;1703;51.964;7.642;2023-04-29T08:15:03;13.00;99.90
3380;DHT22;1703;51.964;7.642;2023-04-29T08:17:30;13.00;99.90
3380;DHT22;1703;51.964;7.642;2023-04-29T08:19:59;13.10;99.90
3380;DHT22;1703;51.964;7.642;2023-04-29T08:22:25;13.10;99.90
3380;DHT22;1703;51.964;7.642;2023-04-29T08:24:52;13.10;99.90
3380;DHT22;1703;51.964;7.642;2023-04-29T08:27:19;13.10;99.90
3380;DHT22;1703;51.964;7.642;2023-04-29T08:29:46;13.30;99.90
3380;DHT22;1703;51.964;7.642;2023-04-29T08:32:13;13.30;99.90
3380;DHT22;1703;51.964;7.642;2023-04-29T08:34:40;13.30;99.90
3380;DHT22;1703;51.964;7.642;2023-04-29T08:37:08;13.30;99.90
3380;DHT22;1703;51.964;7.642;2023-04-29T08:39:35;13.40;99.90
3380;DHT22;1703;51.964;7.642;2023-04-29T08:42:07;13.50;99.90
3380;DHT22;1703;51.964;7.642;2023-04-29T08:44:34;13.50;99.90
3380;DHT22;1703;51.964;7.642;2023-04-29T08:47:01;13.40;99.90
3380;DHT22;1703;51.964;7.642;2023-04-29T08:49:28;13.50;99.90
3380;DHT22;1703;51.964;7.642;2023-04-29T08:51:57;13.60;99.90
3380;DHT22;1703;51.964;7.642;2023-04-29T08:54:25;13.50;99.90
3380;DHT22;1703;51.964;7.642;2023-04-29T08:56:54;13.50;99.90
3380;DHT22;1703;51.964;7.642;2023-04-29T08:59:21;13.60;99.90
3380;DHT22;1703;51.964;7.642;2023-04-29T09:01:50;13.60;99.90
3380;DHT22;1703;51.964;7.642;2023-04-29T09:04:29;13.70;99.90
3380;DHT22;1703;51.964;7.642;2023-04-29T09:06:57;13.70;99.90
3380;DHT22;1703;51.964;7.642;2023-04-29T09:09:26;13.60;99.90
3380;DHT22;1703;51.964;7.642;2023-04-29T09:11:53;13.70;99.90
3380;DHT22;1703;51.964;7.642;2023-04-29T09:14:21;13.80;99.90
3380;DHT22;1703;51.964;7.642;2023-04-29T09:16:49;13.80;99.90
3380;DHT22;1703;51.964;7.642;2023-04-29T09:19:37;14.00;99.90
3380;DHT22;1703;51.964;7.642;2023-04-29T09:22:04;14.20;99.90
3380;DHT22;1703;51.964;7.642;2023-04-29T09:24:33;14.30;99.90
3380;DHT22;1703;51.964;7.642;2023-04-29T09:27:00;14.50;99.90
3380;DHT22;1703;51.964;7.642;2023-04-29T09:29:27;14.50;99.90
3380;DHT22;1703;51.964;7.642;2023-04-29T09:31:55;14.30;99.90
3380;DHT22;1703;51.964;7.642;2023-04-29T09:34:33;14.40;99.90
3380;DHT22;1703;51.964;7.642;2023-04-29T09:37:02;14.30;99.90
3380;DHT22;1703;51.964;7.642;2023-04-29T09:39:38;14.40;99.90
3380;DHT22;1703;51.964;7.642;2023-04-29T09:42:05;14.60;99.90
3380;DHT22;1703;51.964;7.642;2023-04-29T09:44:34;14.70;99.90
3380;DHT22;1703;51.964;7.642;2023-04-29T09:47:03;14.80;99.90
3380;DHT22;1703;51.964;7.642;2023-04-29T09:49:32;14.80;99.90
3380;DHT22;1703;51.964;7.642;2023-04-29T09:52:02;14.70;99.90
3380;DHT22;1703;51.964;7.642;2023-04-29T09:54:31;14.70;99.90
3380;DHT22;1703;51.964;7.642;2023-04-29T09:57:00;14.70;99.90
3380;DHT22;1703;51.964;7.642;2023-04-29T09:59:31;14.70;99.90
3380;DHT22;1703;51.964;7.642;2023-04-29T10:02:01;14.90;99.90
3380;DHT22;1703;51.964;7.642;2023-04-29T10:04:34;14.90;99.90
3380;DHT22;1703;51.964;7.642;2023-04-29T10:07:04;15.00;99.90
3380;DHT22;1703;51.964;7.642;2023-04-29T10:09:31;15.30;99.90
3380;DHT22;1703;51.964;7.642;2023-04-29T10:12:00;15.20;99.90
3380;DHT22;1703;51.964;7.642;2023-04-29T10:14:27;15.30;99.90
3380;DHT22;1703;51.964;7.642;2023-04-29T10:17:02;15.40;99.90
3380;DHT22;1703;51.964;7.642;2023-04-29T10:19:37;15.60;99.90
3380;DHT22;1703;51.964;7.642;2023-04-29T10:22:07;15.60;99.90
3380;DHT22;1703;51.964;7.642;2023-04-29T10:24:35;15.70;99.90
3380;DHT22;1703;51.964;7.642;2023-04-29T10:27:06;15.70;99.90
3380;DHT22;1703;51.964;7.642;2023-04-29T10:29:34;15.70;99.90
3380;DHT22;1703;51.964;7.642;2023-04-29T10:32:02;15.80;99.90
3380;DHT22;1703;51.964;7.642;2023-04-29T10:34:31;15.90;99.90
3380;DHT22;1703;51.964;7.642;2023-04-29T10:36:58;16.10;99.90
3380;DHT22;1703;51.964;7.642;2023-04-29T10:39:31;16.20;99.90
3380;DHT22;1703;51.964;7.642;2023-04-29T10:42:04;16.00;99.90
3380;DHT22;1703;51.964;7.642;2023-04-29T10:45:15;16.00;99.90
3380;DHT22;1703;51.964;7.642;2023-04-29T10:48:14;16.10;99.90
3380;DHT22;1703;51.964;7.642;2023-04-29T10:51:07;16.20;99.90
3380;DHT22;1703;51.964;7.642;2023-04-29T10:53:34;16.20;99.90
3380;DHT22;1703;51.964;7.642;2023-04-29T10:56:08;16.30;99.90
3380;DHT22;1703;51.964;7.642;2023-04-29T10:58:39;16.30;99.90
3380;DHT22;1703;51.964;7.642;2023-04-29T11:01:09;16.30;99.90
3380;DHT22;1703;51.964;7.642;2023-04-29T11:03:48;16.30;99.90
3380;DHT22;1703;51.964;7.642;2023-04-29T11:06:19;16.20;99.90
3380;DHT22;1703;51.964;7.642;2023-04-29T11:08:46;16.40;99.90
3380;DHT22;1703;51.964;7.642;2023-04-29T11:11:13;16.40;99.90
3380;DHT22;1703;51.964;7.642;2023-04-29T11:13:45;16.50;99.90
3380;DHT22;1703;51.964;7.642;2023-04-29T11:16:12;16.60;99.90
3380;DHT22;1703;51.964;7.642;2023-04-29T11:19:03;16.80;99.90
3380;DHT22;1703;51.964;7.642;2023-04-29T11:21:30;16.80;99.90
3380;DHT22;1703;51.964;7.642;2023-04-29T11:23:59;16.60;99.90
3380;DHT22;1703;51.964;7.642;2023-04-29T11:26:26;16.50;99.90
3380;DHT22;1703;51.964;7.642;2023-04-29T11:28:55;16.70;99.90
3380;DHT22;1703;51.964;7.642;2023-04-29T11:31:25;16.70;99.90
3380;DHT22;1703;51.964;7.642;2023-04-29T11:33:54;16.70;99.90
3380;DHT22;1703;51.964;7.642;2023-04-29T11:36:21;16.60;99.90
3380;DHT22;1703;51.964;7.642;2023-04-29T11:38:48;16.60;99.90
3380;DHT22;1703;51.964;7.642;2023-04-29T11:41:15;16.40;99.90
3380;DHT22;1703;51.964;7.642;2023-04-29T11:43:45;16.50;99.90
3380;DHT22;1703;51.964;7.642;2023-04-29T11:46:13;16.60;99.90
3380;DHT22;1703;51.964;7.642;2023-04-29T11:48:47;16.70;99.90
3380;DHT22;1703;51.964;7.642;2023-04-29T11:51:15;16.70;99.90
3380;DHT22;1703;51.964;7.642;2023-04-29T11:53:44;16.60;99.90
3380;DHT22;1703;51.964;7.642;2023-04-29T11:56:11;16.70;99.90
3380;DHT22;1703;51.964;7.642;2023-04-29T11:58:37;16.80;99.90
3380;DHT22;1703;51.964;7.642;2023-04-29T12:01:05;16.70;99.90
3380;DHT22;1703;51.964;7.642;2023-04-29T12:03:33;16.70;99.90
3380;DHT22;1703;51.964;7.642;2023-04-29T12:06:01;16.70;99.90
3380;DHT22;1703;51.964;7.642;2023-04-29T12:08:29;16.80;99.90
3380;DHT22;1703;51.964;7.642;2023-04-29T12:10:58;16.70;99.90
3380;DHT22;1703;51.964;7.642;2023-04-29T12:13:27;16.60;99.90
3380;DHT22;1703;51.964;7.642;2023-04-29T12:15:54;16.50;99.90
3380;DHT22;1703;51.964;7.642;2023-04-29T12:18:21;16.40;99.90
3380;DHT22;1703;51.964;7.642;2023-04-29T12:20:50;16.30;99.90
3380;DHT22;1703;51.964;7.642;2023-04-29T12:23:18;16.30;99.90
3380;DHT22;1703;51.964;7.642;2023-04-29T12:25:48;16.30;99.90
3380;DHT22;1703;51.964;7.642;2023-04-29T12:28:16;16.00;99.90
3380;DHT22;1703;51.964;7.642;2023-04-29T12:30:44;16.00;99.90
3380;DHT22;1703;51.964;7.642;2023-04-29T12:33:15;15.90;99.90
3380;DHT22;1703;51.964;7.642;2023-04-29T12:35:44;15.90;99.90
3380;DHT22;1703;51.964;7.642;2023-04-29T12:38:15;15.80;99.90
3380;DHT22;1703;51.964;7.642;2023-04-29T12:40:43;15.70;99.90
3380;DHT22;1703;51.964;7.642;2023-04-29T12:43:10;15.90;99.90
3380;DHT22;1703;51.964;7.642;2023-04-29T12:45:38;16.10;99.90
3380;DHT22;1703;51.964;7.642;2023-04-29T12:48:05;16.20;99.90
3380;DHT22;1703;51.964;7.642;2023-04-29T12:50:33;16.40;99.90
3380;DHT22;1703;51.964;7.642;2023-04-29T12:53:00;16.40;99.90
3380;DHT22;1703;51.964;7.642;2023-04-29T12:55:30;16.50;99.90
3380;DHT22;1703;51.964;7.642;2023-04-29T12:57:57;16.60;99.90
3380;DHT22;1703;51.964;7.642;2023-04-29T13:00:23;16.80;99.90
3380;DHT22;1703;51.964;7.642;2023-04-29T13:02:50;16.80;99.90
3380;DHT22;1703;51.964;7.642;2023-04-29T13:05:17;16.80;99.90
3380;DHT22;1703;51.964;7.642;2023-04-29T13:07:44;17.00;99.90
3380;DHT22;1703;51.964;7.642;2023-04-29T13:10:11;16.80;99.90
3380;DHT22;1703;51.964;7.642;2023-04-29T13:12:40;16.70;99.90
3380;DHT22;1703;51.964;7.642;2023-04-29T13:15:07;16.60;99.90
3380;DHT22;1703;51.964;7.642;2023-04-29T13:17:35;16.50;99.90
3380;DHT22;1703;51.964;7.642;2023-04-29T13:20:02;16.50;99.90
3380;DHT22;1703;51.964;7.642;2023-04-29T13:22:29;16.40;99.90
3380;DHT22;1703;51.964;7.642;2023-04-29T13:24:56;16.30;99.90
3380;DHT22;1703;51.964;7.642;2023-04-29T13:27:23;16.40;99.90
3380;DHT22;1703;51.964;7.642;2023-04-29T13:29:51;16.20;99.90
3380;DHT22;1703;51.964;7.642;2023-04-29T13:32:18;16.10;99.90
3380;DHT22;1703;51.964;7.642;2023-04-29T13:34:48;16.20;99.90
3380;DHT22;1703;51.964;7.642;2023-04-29T13:37:14;16.30;99.90
3380;DHT22;1703;51.964;7.642;2023-04-29T13:39:41;16.50;99.90
3380;DHT22;1703;51.964;7.642;2023-04-29T13:42:08;16.70;99.90
3380;DHT22;1703;51.964;7.642;2023-04-29T13:44:35;16.80;99.90
3380;DHT22;1703;51.964;7.642;2023-04-29T13:47:04;17.00;99.90
3380;DHT22;1703;51.964;7.642;2023-04-29T13:49:31;17.50;99.90
3380;DHT22;1703;51.964;7.642;2023-04-29T13:51:58;18.00;99.90
3380;DHT22;1703;51.964;7.642;2023-04-29T13:54:25;18.20;99.90
3380;DHT22;1703;51.964;7.642;2023-04-29T13:56:52;18.70;99.90
3380;DHT22;1703;51.964;7.642;2023-04-29T13:59:19;18.90;99.90
3380;DHT22;1703;51.964;7.642;2023-04-29T14:01:46;19.50;99.90
3380;DHT22;1703;51.964;7.642;2023-04-29T14:04:14;19.30;99.90
3380;DHT22;1703;51.964;7.642;2023-04-29T14:06:42;19.10;99.90
3380;DHT22;1703;51.964;7.642;2023-04-29T14:09:09;19.50;99.90
3380;DHT22;1703;51.964;7.642;2023-04-29T14:11:36;20.10;99.90
3380;DHT22;1703;51.964;7.642;2023-04-29T14:14:03;20.50;99.90
3380;DHT22;1703;51.964;7.642;2023-04-29T14:16:29;20.40;99.90
3380;DHT22;1703;51.964;7.642;2023-04-29T14:18:56;19.80;99.90
3380;DHT22;1703;51.964;7.642;2023-04-29T14:21:24;19.50;99.90
3380;DHT22;1703;51.964;7.642;2023-04-29T14:23:51;19.50;99.90
3380;DHT22;1703;51.964;7.642;2023-04-29T14:26:18;19.20;99.90
3380;DHT22;1703;51.964;7.642;2023-04-29T14:28:45;19.00;99.90
3380;DHT22;1703;51.964;7.642;2023-04-29T14:31:12;18.70;99.90
3380;DHT22;1703;51.964;7.642;2023-04-29T14:33:39;18.50;99.90
3380;DHT22;1703;51.964;7.642;2023-04-29T14:36:06;18.10;99.90
3380;DHT22;1703;51.964;7.642;2023-04-29T14:38:34;17.90;99.90
3380;DHT22;1703;51.964;7.642;2023-04-29T14:41:01;17.80;99.90
3380;DHT22;1703;51.964;7.642;2023-04-29T14:43:28;17.60;99.90
3380;DHT22;1703;51.964;7.642;2023-04-29T14:45:55;17.60;99.90
3380;DHT22;1703;51.964;7.642;2023-04-29T14:48:22;17.50;99.90
3380;DHT22;1703;51.964;7.642;2023-04-29T14:50:49;17.50;99.90
3380;DHT22;1703;51.964;7.642;2023-04-29T14:53:15;17.40;99.90
3380;DHT22;1703;51.964;7.642;2023-04-29T14:55:43;17.30;99.90
3380;DHT22;1703;51.964;7.642;2023-04-29T14:58:10;17.10;99.90
3380;DHT22;1703;51.964;7.642;2023-04-29T15:00:37;17.00;99.90
3380;DHT22;1703;51.964;7.642;2023-04-29T15:03:04;16.90;99.90
3380;DHT22;1703;51.964;7.642;2023-04-29T15:05:31;16.80;99.90
3380;DHT22;1703;51.964;7.642;2023-04-29T15:07:58;16.80;99.90
3380;DHT22;1703;51.964;7.642;2023-04-29T15:10:28;16.80;99.90
3380;DHT22;1703;51.964;7.642;2023-04-29T15:12:57;16.80;99.90
3380;DHT22;1703;51.964;7.642;2023-04-29T15:15:24;16.80;99.90
3380;DHT22;1703;51.964;7.642;2023-04-29T15:17:51;16.90;99.90
3380;DHT22;1703;51.964;7.642;2023-04-29T15:20:17;17.00;99.90
3380;DHT22;1703;51.964;7.642;2023-04-29T15:22:44;16.90;99.90
3380;DHT22;1703;51.964;7.642;2023-04-29T15:25:11;16.80;99.90
3380;DHT22;1703;51.964;7.642;2023-04-29T15:27:38;16.80;99.90
3380;DHT22;1703;51.964;7.642;2023-04-29T15:30:07;16.80;99.90
3380;DHT22;1703;51.964;7.642;2023-04-29T15:32:34;16.80;99.90
3380;DHT22;1703;51.964;7.642;2023-04-29T15:35:02;16.80;99.90
3380;DHT22;1703;51.964;7.642;2023-04-29T15:37:29;16.80;99.90
3380;DHT22;1703;51.964;7.642;2023-04-29T15:39:58;16.80;99.90
3380;DHT22;1703;51.964;7.642;2023-04-29T15:42:25;16.70;99.90
3380;DHT22;1703;51.964;7.642;2023-04-29T15:44:52;16.60;99.90
3380;DHT22;1703;51.964;7.642;2023-04-29T15:47:20;16.50;99.90
3380;DHT22;1703;51.964;7.642;2023-04-29T15:49:47;16.50;99.90
3380;DHT22;1703;51.964;7.642;2023-04-29T15:52:15;16.50;99.90
3380;DHT22;1703;51.964;7.642;2023-04-29T15:54:42;16.50;99.90
3380;DHT22;1703;51.964;7.642;2023-04-29T15:57:09;16.40;99.90
3380;DHT22;1703;51.964;7.642;2023-04-29T15:59:35;16.50;99.90
3380;DHT22;1703;51.964;7.642;2023-04-29T16:02:02;16.50;99.90
3380;DHT22;1703;51.964;7.642;2023-04-29T16:04:36;16.50;99.90
3380;DHT22;1703;51.964;7.642;2023-04-29T16:07:03;16.50;99.90
3380;DHT22;1703;51.964;7.642;2023-04-29T16:09:30;16.50;99.90
3380;DHT22;1703;51.964;7.642;2023-04-29T16:11:57;16.50;99.90
3380;DHT22;1703;51.964;7.642;2023-04-29T16:14:24;16.50;99.90
3380;DHT22;1703;51.964;7.642;2023-04-29T16:16:50;16.50;99.90
3380;DHT22;1703;51.964;7.642;2023-04-29T16:19:17;16.50;99.90
3380;DHT22;1703;51.964;7.642;2023-04-29T16:21:46;16.50;99.90
3380;DHT22;1703;51.964;7.642;2023-04-29T16:24:13;16.50;99.90
3380;DHT22;1703;51.964;7.642;2023-04-29T16:26:40;16.40;99.90
3380;DHT22;1703;51.964;7.642;2023-04-29T16:29:07;16.40;99.90
3380;DHT22;1703;51.964;7.642;2023-04-29T16:31:34;16.40;99.90
3380;DHT22;1703;51.964;7.642;2023-04-29T16:34:01;16.40;99.90
3380;DHT22;1703;51.964;7.642;2023-04-29T16:36:28;16.40;99.90
3380;DHT22;1703;51.964;7.642;2023-04-29T16:38:56;16.40;99.90
3380;DHT22;1703;51.964;7.642;2023-04-29T16:41:23;16.50;99.90
3380;DHT22;1703;51.964;7.642;2023-04-29T16:43:50;16.40;99.90
3380;DHT22;1703;51.964;7.642;2023-04-29T16:46:18;16.40;99.90
3380;DHT22;1703;51.964;7.642;2023-04-29T16:48:44;16.50;99.90
3380;DHT22;1703;51.964;7.642;2023-04-29T16:51:11;16.40;99.90
3380;DHT22;1703;51.964;7.642;2023-04-29T16:53:38;16.40;99.90
3380;DHT22;1703;51.964;7.642;2023-04-29T16:56:06;16.40;99.90
3380;DHT22;1703;51.964;7.642;2023-04-29T16:58:33;16.40;99.90
3380;DHT22;1703;51.964;7.642;2023-04-29T17:01:00;16.40;99.90
3380;DHT22;1703;51.964;7.642;2023-04-29T17:03:29;16.40;99.90
3380;DHT22;1703;51.964;7.642;2023-04-29T17:05:57;16.40;99.90
3380;DHT22;1703;51.964;7.642;2023-04-29T17:08:24;16.50;99.90
3380;DHT22;1703;51.964;7.642;2023-04-29T17:10:51;16.40;99.90
3380;DHT22;1703;51.964;7.642;2023-04-29T17:13:19;16.40;99.90
3380;DHT22;1703;51.964;7.642;2023-04-29T17:15:46;16.40;99.90
3380;DHT22;1703;51.964;7.642;2023-04-29T17:18:12;16.30;99.90
3380;DHT22;1703;51.964;7.642;2023-04-29T17:20:40;16.30;99.90